sensor_id;sensor_type;location;lat;lon;timestamp;P1;durP1;ratioP1;P2;durP2;ratioP2
15063;SDS011;7631;52.088;5.088;2022-08-18T00:01:05;4.32;;;3.38;;
15063;SDS011;7631;52.088;5.088;2022-08-18T00:03:31;3.70;;;3.40;;
15063;SDS011;7631;52.088;5.088;2022-08-18T00:05:56;3.90;;;3.60;;
15063;SDS011;7631;52.088;5.088;2022-08-18T00:08:21;3.45;;;3.15;;
15063;SDS011;7631;52.088;5.088;2022-08-18T00:10:47;3.70;;;3.40;;
15063;SDS011;7631;52.088;5.088;2022-08-18T00:13:12;3.75;;;3.55;;
15063;SDS011;7631;52.088;5.088;2022-08-18T00:15:37;3.67;;;3.38;;
15063;SDS011;7631;52.088;5.088;2022-08-18T00:18:02;3.28;;;3.08;;
15063;SDS011;7631;52.088;5.088;2022-08-18T00:20:27;4.18;;;3.42;;
15063;SDS011;7631;52.088;5.088;2022-08-18T00:22:53;3.60;;;3.30;;
15063;SDS011;7631;52.088;5.088;2022-08-18T00:25:20;3.35;;;3.05;;
15063;SDS011;7631;52.088;5.088;2022-08-18T00:27:46;3.78;;;3.47;;
15063;SDS011;7631;52.088;5.088;2022-08-18T00:30:12;3.95;;;3.45;;
15063;SDS011;7631;52.088;5.088;2022-08-18T00:32:42;3.45;;;3.15;;
15063;SDS011;7631;52.088;5.088;2022-08-18T00:35:10;3.40;;;3.10;;
15063;SDS011;7631;52.088;5.088;2022-08-18T00:37:37;3.40;;;3.10;;
15063;SDS011;7631;52.088;5.088;2022-08-18T00:40:03;3.00;;;2.80;;
15063;SDS011;7631;52.088;5.088;2022-08-18T00:42:29;3.42;;;3.22;;
15063;SDS011;7631;52.088;5.088;2022-08-18T00:44:54;3.47;;;3.17;;
15063;SDS011;7631;52.088;5.088;2022-08-18T00:47:20;3.67;;;3.38;;
15063;SDS011;7631;52.088;5.088;2022-08-18T00:49:45;3.10;;;2.90;;
15063;SDS011;7631;52.088;5.088;2022-08-18T00:52:11;3.20;;;2.90;;
15063;SDS011;7631;52.088;5.088;2022-08-18T00:54:37;3.30;;;3.10;;
15063;SDS011;7631;52.088;5.088;2022-08-18T00:57:05;3.17;;;2.97;;
15063;SDS011;7631;52.088;5.088;2022-08-18T01:02:03;3.20;;;3.00;;
15063;SDS011;7631;52.088;5.088;2022-08-18T01:06:57;3.03;;;2.83;;
15063;SDS011;7631;52.088;5.088;2022-08-18T01:09:24;3.47;;;3.17;;
15063;SDS011;7631;52.088;5.088;2022-08-18T01:11:50;3.30;;;2.97;;
15063;SDS011;7631;52.088;5.088;2022-08-18T01:14:15;2.95;;;2.75;;
15063;SDS011;7631;52.088;5.088;2022-08-18T01:16:42;2.90;;;2.70;;
15063;SDS011;7631;52.088;5.088;2022-08-18T01:19:26;3.08;;;2.80;;
15063;SDS011;7631;52.088;5.088;2022-08-18T01:22:31;2.88;;;2.50;;
15063;SDS011;7631;52.088;5.088;2022-08-18T01:24:58;3.22;;;2.83;;
15063;SDS011;7631;52.088;5.088;2022-08-18T01:27:44;3.00;;;2.80;;
15063;SDS011;7631;52.088;5.088;2022-08-18T01:30:10;3.35;;;3.05;;
15063;SDS011;7631;52.088;5.088;2022-08-18T01:32:37;3.20;;;2.90;;
15063;SDS011;7631;52.088;5.088;2022-08-18T01:35:02;3.35;;;2.42;;
15063;SDS011;7631;52.088;5.088;2022-08-18T01:37:28;3.00;;;2.80;;
15063;SDS011;7631;52.088;5.088;2022-08-18T01:39:54;3.17;;;2.70;;
15063;SDS011;7631;52.088;5.088;2022-08-18T01:42:19;2.75;;;2.55;;
15063;SDS011;7631;52.088;5.088;2022-08-18T01:44:45;3.13;;;2.92;;
15063;SDS011;7631;52.088;5.088;2022-08-18T01:47:11;3.55;;;2.58;;
15063;SDS011;7631;52.088;5.088;2022-08-18T01:49:40;2.67;;;2.47;;
15063;SDS011;7631;52.088;5.088;2022-08-18T01:52:07;3.00;;;2.80;;
15063;SDS011;7631;52.088;5.088;2022-08-18T01:54:32;2.78;;;2.58;;
15063;SDS011;7631;52.088;5.088;2022-08-18T01:56:58;2.88;;;2.67;;
15063;SDS011;7631;52.088;5.088;2022-08-18T01:59:23;2.80;;;2.60;;
15063;SDS011;7631;52.088;5.088;2022-08-18T02:01:48;3.05;;;2.75;;
15063;SDS011;7631;52.088;5.088;2022-08-18T02:04:18;2.97;;;2.78;;
15063;SDS011;7631;52.088;5.088;2022-08-18T02:06:43;2.92;;;2.72;;
15063;SDS011;7631;52.088;5.088;2022-08-18T02:09:08;3.55;;;2.78;;
15063;SDS011;7631;52.088;5.088;2022-08-18T02:11:34;2.17;;;2.08;;
15063;SDS011;7631;52.088;5.088;2022-08-18T02:13:59;3.10;;;2.70;;
15063;SDS011;7631;52.088;5.088;2022-08-18T02:16:24;3.03;;;2.72;;
15063;SDS011;7631;52.088;5.088;2022-08-18T02:18:49;3.05;;;2.60;;
15063;SDS011;7631;52.088;5.088;2022-08-18T02:21:16;2.97;;;2.78;;
15063;SDS011;7631;52.088;5.088;2022-08-18T02:23:42;2.47;;;2.30;;
15063;SDS011;7631;52.088;5.088;2022-08-18T02:26:08;3.00;;;2.75;;
15063;SDS011;7631;52.088;5.088;2022-08-18T02:28:34;3.20;;;3.00;;
15063;SDS011;7631;52.088;5.088;2022-08-18T02:31:06;4.47;;;2.70;;
15063;SDS011;7631;52.088;5.088;2022-08-18T02:33:32;2.88;;;2.67;;
15063;SDS011;7631;52.088;5.088;2022-08-18T02:35:58;3.25;;;3.05;;
15063;SDS011;7631;52.088;5.088;2022-08-18T02:38:23;2.65;;;2.45;;
15063;SDS011;7631;52.088;5.088;2022-08-18T02:40:53;2.85;;;2.65;;
15063;SDS011;7631;52.088;5.088;2022-08-18T02:43:18;2.75;;;2.40;;
15063;SDS011;7631;52.088;5.088;2022-08-18T02:45:44;3.25;;;2.95;;
15063;SDS011;7631;52.088;5.088;2022-08-18T02:48:09;2.70;;;2.50;;
15063;SDS011;7631;52.088;5.088;2022-08-18T02:50:34;2.95;;;2.75;;
15063;SDS011;7631;52.088;5.088;2022-08-18T02:53:08;3.70;;;3.40;;
15063;SDS011;7631;52.088;5.088;2022-08-18T02:55:34;3.05;;;2.85;;
15063;SDS011;7631;52.088;5.088;2022-08-18T02:57:59;3.63;;;3.33;;
15063;SDS011;7631;52.088;5.088;2022-08-18T03:00:27;3.07;;;2.80;;
15063;SDS011;7631;52.088;5.088;2022-08-18T03:02:52;3.27;;;2.97;;
15063;SDS011;7631;52.088;5.088;2022-08-18T03:05:18;3.42;;;3.13;;
15063;SDS011;7631;52.088;5.088;2022-08-18T03:07:44;2.88;;;2.67;;
15063;SDS011;7631;52.088;5.088;2022-08-18T03:10:09;3.15;;;2.90;;
15063;SDS011;7631;52.088;5.088;2022-08-18T03:12:35;3.53;;;3.00;;
15063;SDS011;7631;52.088;5.088;2022-08-18T03:15:00;2.53;;;2.33;;
15063;SDS011;7631;52.088;5.088;2022-08-18T03:17:26;2.70;;;2.50;;
15063;SDS011;7631;52.088;5.088;2022-08-18T03:19:51;2.90;;;2.70;;
15063;SDS011;7631;52.088;5.088;2022-08-18T03:22:16;2.85;;;2.65;;
15063;SDS011;7631;52.088;5.088;2022-08-18T03:24:42;2.92;;;2.72;;
15063;SDS011;7631;52.088;5.088;2022-08-18T03:27:07;2.90;;;2.70;;
15063;SDS011;7631;52.088;5.088;2022-08-18T03:29:33;3.30;;;3.00;;
15063;SDS011;7631;52.088;5.088;2022-08-18T03:32:02;3.28;;;2.97;;
15063;SDS011;7631;52.088;5.088;2022-08-18T03:34:28;3.30;;;3.00;;
15063;SDS011;7631;52.088;5.088;2022-08-18T03:36:53;3.93;;;3.53;;
15063;SDS011;7631;52.088;5.088;2022-08-18T03:39:19;2.60;;;2.40;;
15063;SDS011;7631;52.088;5.088;2022-08-18T03:41:47;2.90;;;2.70;;
15063;SDS011;7631;52.088;5.088;2022-08-18T03:44:13;3.30;;;3.10;;
15063;SDS011;7631;52.088;5.088;2022-08-18T03:46:42;3.00;;;2.80;;
15063;SDS011;7631;52.088;5.088;2022-08-18T03:49:07;3.30;;;3.00;;
15063;SDS011;7631;52.088;5.088;2022-08-18T03:51:33;3.40;;;3.10;;
15063;SDS011;7631;52.088;5.088;2022-08-18T03:54:00;3.23;;;3.03;;
15063;SDS011;7631;52.088;5.088;2022-08-18T03:56:27;4.07;;;3.23;;
15063;SDS011;7631;52.088;5.088;2022-08-18T03:58:57;4.10;;;3.30;;
15063;SDS011;7631;52.088;5.088;2022-08-18T04:01:24;3.00;;;2.80;;
15063;SDS011;7631;52.088;5.088;2022-08-18T04:03:51;3.00;;;2.80;;
15063;SDS011;7631;52.088;5.088;2022-08-18T04:06:18;3.40;;;3.10;;
15063;SDS011;7631;52.088;5.088;2022-08-18T04:08:43;3.17;;;2.95;;
15063;SDS011;7631;52.088;5.088;2022-08-18T04:11:10;2.80;;;2.60;;
15063;SDS011;7631;52.088;5.088;2022-08-18T04:13:37;3.17;;;2.97;;
15063;SDS011;7631;52.088;5.088;2022-08-18T04:16:03;3.23;;;2.93;;
15063;SDS011;7631;52.088;5.088;2022-08-18T04:18:28;3.03;;;2.80;;
15063;SDS011;7631;52.088;5.088;2022-08-18T04:20:55;3.20;;;2.90;;
15063;SDS011;7631;52.088;5.088;2022-08-18T04:23:22;3.03;;;2.83;;
15063;SDS011;7631;52.088;5.088;2022-08-18T04:25:55;2.97;;;2.77;;
15063;SDS011;7631;52.088;5.088;2022-08-18T04:28:20;3.37;;;2.80;;
15063;SDS011;7631;52.088;5.088;2022-08-18T04:30:46;2.80;;;2.60;;
15063;SDS011;7631;52.088;5.088;2022-08-18T04:33:11;2.78;;;2.58;;
15063;SDS011;7631;52.088;5.088;2022-08-18T04:35:36;2.93;;;2.73;;
15063;SDS011;7631;52.088;5.088;2022-08-18T04:38:02;3.00;;;2.80;;
15063;SDS011;7631;52.088;5.088;2022-08-18T04:40:27;3.03;;;2.83;;
15063;SDS011;7631;52.088;5.088;2022-08-18T04:42:53;3.13;;;2.90;;
15063;SDS011;7631;52.088;5.088;2022-08-18T04:45:18;3.30;;;3.00;;
15063;SDS011;7631;52.088;5.088;2022-08-18T04:47:43;2.60;;;2.40;;
15063;SDS011;7631;52.088;5.088;2022-08-18T04:50:09;2.77;;;2.57;;
15063;SDS011;7631;52.088;5.088;2022-08-18T04:52:34;2.83;;;2.63;;
15063;SDS011;7631;52.088;5.088;2022-08-18T04:55:18;2.90;;;2.60;;
15063;SDS011;7631;52.088;5.088;2022-08-18T04:57:44;2.63;;;2.43;;
15063;SDS011;7631;52.088;5.088;2022-08-18T05:00:09;2.77;;;2.57;;
15063;SDS011;7631;52.088;5.088;2022-08-18T05:02:37;2.73;;;2.40;;
15063;SDS011;7631;52.088;5.088;2022-08-18T05:05:03;3.20;;;2.63;;
15063;SDS011;7631;52.088;5.088;2022-08-18T05:07:28;2.70;;;2.50;;
15063;SDS011;7631;52.088;5.088;2022-08-18T05:09:54;2.90;;;2.70;;
15063;SDS011;7631;52.088;5.088;2022-08-18T05:12:20;2.93;;;2.67;;
15063;SDS011;7631;52.088;5.088;2022-08-18T05:14:45;2.80;;;2.60;;
15063;SDS011;7631;52.088;5.088;2022-08-18T05:17:11;2.60;;;2.40;;
15063;SDS011;7631;52.088;5.088;2022-08-18T05:19:37;2.67;;;2.47;;
15063;SDS011;7631;52.088;5.088;2022-08-18T05:22:02;2.87;;;2.63;;
15063;SDS011;7631;52.088;5.088;2022-08-18T05:24:28;2.60;;;2.40;;
15063;SDS011;7631;52.088;5.088;2022-08-18T05:26:54;2.50;;;2.30;;
15063;SDS011;7631;52.088;5.088;2022-08-18T05:29:20;2.80;;;2.60;;
15063;SDS011;7631;52.088;5.088;2022-08-18T05:31:49;2.77;;;2.57;;
15063;SDS011;7631;52.088;5.088;2022-08-18T05:34:15;2.33;;;2.22;;
15063;SDS011;7631;52.088;5.088;2022-08-18T05:41:40;3.47;;;3.17;;
15063;SDS011;7631;52.088;5.088;2022-08-18T05:44:06;3.10;;;2.90;;
15063;SDS011;7631;52.088;5.088;2022-08-18T05:46:52;2.97;;;2.73;;
15063;SDS011;7631;52.088;5.088;2022-08-18T05:49:18;2.90;;;2.60;;
15063;SDS011;7631;52.088;5.088;2022-08-18T05:51:44;3.15;;;2.85;;
15063;SDS011;7631;52.088;5.088;2022-08-18T05:54:10;2.80;;;2.60;;
15063;SDS011;7631;52.088;5.088;2022-08-18T05:56:56;2.60;;;2.40;;
15063;SDS011;7631;52.088;5.088;2022-08-18T05:59:31;2.60;;;2.40;;
15063;SDS011;7631;52.088;5.088;2022-08-18T06:02:02;2.67;;;2.40;;
15063;SDS011;7631;52.088;5.088;2022-08-18T06:05:14;2.70;;;2.50;;
15063;SDS011;7631;52.088;5.088;2022-08-18T06:10:05;2.53;;;2.33;;
15063;SDS011;7631;52.088;5.088;2022-08-18T06:12:32;2.53;;;2.33;;
15063;SDS011;7631;52.088;5.088;2022-08-18T06:15:03;2.73;;;2.53;;
15063;SDS011;7631;52.088;5.088;2022-08-18T06:28:20;3.10;;;2.90;;
15063;SDS011;7631;52.088;5.088;2022-08-18T06:33:22;4.00;;;2.70;;
15063;SDS011;7631;52.088;5.088;2022-08-18T06:35:58;3.03;;;2.70;;
15063;SDS011;7631;52.088;5.088;2022-08-18T06:41:18;3.20;;;2.97;;
15063;SDS011;7631;52.088;5.088;2022-08-18T06:43:49;2.87;;;2.63;;
15063;SDS011;7631;52.088;5.088;2022-08-18T06:46:18;2.97;;;2.70;;
15063;SDS011;7631;52.088;5.088;2022-08-18T06:48:55;3.10;;;2.80;;
15063;SDS011;7631;52.088;5.088;2022-08-18T06:51:25;2.93;;;2.47;;
15063;SDS011;7631;52.088;5.088;2022-08-18T06:56:33;2.63;;;2.43;;
15063;SDS011;7631;52.088;5.088;2022-08-18T07:01:40;3.33;;;3.03;;
15063;SDS011;7631;52.088;5.088;2022-08-18T07:04:05;3.10;;;2.80;;
15063;SDS011;7631;52.088;5.088;2022-08-18T07:06:30;4.13;;;3.28;;
15063;SDS011;7631;52.088;5.088;2022-08-18T07:11:40;2.50;;;2.30;;
15063;SDS011;7631;52.088;5.088;2022-08-18T07:14:17;2.60;;;2.40;;
15063;SDS011;7631;52.088;5.088;2022-08-18T07:16:45;3.87;;;2.63;;
15063;SDS011;7631;52.088;5.088;2022-08-18T07:19:12;4.05;;;2.85;;
15063;SDS011;7631;52.088;5.088;2022-08-18T07:21:39;3.40;;;2.90;;
15063;SDS011;7631;52.088;5.088;2022-08-18T07:24:06;3.30;;;3.00;;
15063;SDS011;7631;52.088;5.088;2022-08-18T07:26:56;3.63;;;2.60;;
15063;SDS011;7631;52.088;5.088;2022-08-18T07:29:17;2.37;;;2.20;;
15063;SDS011;7631;52.088;5.088;2022-08-18T07:31:45;3.30;;;3.00;;
15063;SDS011;7631;52.088;5.088;2022-08-18T07:34:23;3.28;;;2.50;;
15063;SDS011;7631;52.088;5.088;2022-08-18T07:36:54;3.42;;;3.13;;
15063;SDS011;7631;52.088;5.088;2022-08-18T07:39:25;3.05;;;2.75;;
15063;SDS011;7631;52.088;5.088;2022-08-18T07:41:54;2.72;;;2.50;;
15063;SDS011;7631;52.088;5.088;2022-08-18T07:47:03;2.60;;;2.40;;
15063;SDS011;7631;52.088;5.088;2022-08-18T07:49:31;2.53;;;2.33;;
15063;SDS011;7631;52.088;5.088;2022-08-18T07:52:10;2.90;;;2.70;;
15063;SDS011;7631;52.088;5.088;2022-08-18T08:00:20;2.90;;;2.67;;
15063;SDS011;7631;52.088;5.088;2022-08-18T08:02:51;2.40;;;2.20;;
15063;SDS011;7631;52.088;5.088;2022-08-18T08:07:55;2.45;;;2.25;;
15063;SDS011;7631;52.088;5.088;2022-08-18T08:12:50;2.60;;;2.40;;
15063;SDS011;7631;52.088;5.088;2022-08-18T08:15:25;3.10;;;2.20;;
15063;SDS011;7631;52.088;5.088;2022-08-18T08:18:01;2.83;;;2.20;;
15063;SDS011;7631;52.088;5.088;2022-08-18T08:20:30;2.65;;;2.45;;
15063;SDS011;7631;52.088;5.088;2022-08-18T08:27:51;2.83;;;2.47;;
15063;SDS011;7631;52.088;5.088;2022-08-18T08:30:22;2.97;;;2.72;;
15063;SDS011;7631;52.088;5.088;2022-08-18T08:33:05;2.60;;;2.40;;
15063;SDS011;7631;52.088;5.088;2022-08-18T08:37:57;2.60;;;2.40;;
15063;SDS011;7631;52.088;5.088;2022-08-18T08:40:25;2.33;;;2.22;;
15063;SDS011;7631;52.088;5.088;2022-08-18T08:43:03;2.47;;;2.33;;
15063;SDS011;7631;52.088;5.088;2022-08-18T08:45:31;2.38;;;2.17;;
15063;SDS011;7631;52.088;5.088;2022-08-18T08:50:26;2.30;;;2.10;;
15063;SDS011;7631;52.088;5.088;2022-08-18T08:52:59;2.40;;;2.17;;
15063;SDS011;7631;52.088;5.088;2022-08-18T08:55:30;2.45;;;2.25;;
15063;SDS011;7631;52.088;5.088;2022-08-18T09:00:21;2.60;;;2.40;;
15063;SDS011;7631;52.088;5.088;2022-08-18T09:05:37;2.33;;;2.13;;
15063;SDS011;7631;52.088;5.088;2022-08-18T09:11:05;2.08;;;1.98;;
15063;SDS011;7631;52.088;5.088;2022-08-18T09:23:47;2.50;;;2.30;;
15063;SDS011;7631;52.088;5.088;2022-08-18T09:29:04;2.53;;;2.33;;
15063;SDS011;7631;52.088;5.088;2022-08-18T09:31:34;2.70;;;2.50;;
15063;SDS011;7631;52.088;5.088;2022-08-18T09:34:06;2.30;;;2.20;;
15063;SDS011;7631;52.088;5.088;2022-08-18T09:42:49;2.28;;;2.08;;
15063;SDS011;7631;52.088;5.088;2022-08-18T09:49:51;2.17;;;2.07;;
15063;SDS011;7631;52.088;5.088;2022-08-18T09:54:52;2.20;;;2.00;;
15063;SDS011;7631;52.088;5.088;2022-08-18T09:57:32;2.10;;;2.00;;
15063;SDS011;7631;52.088;5.088;2022-08-18T10:05:21;3.63;;;2.20;;
15063;SDS011;7631;52.088;5.088;2022-08-18T10:07:38;1.90;;;1.80;;
15063;SDS011;7631;52.088;5.088;2022-08-18T10:18:09;2.17;;;2.03;;
15063;SDS011;7631;52.088;5.088;2022-08-18T10:20:22;2.10;;;2.00;;
15063;SDS011;7631;52.088;5.088;2022-08-18T10:22:51;2.38;;;2.17;;
15063;SDS011;7631;52.088;5.088;2022-08-18T10:25:30;1.90;;;1.80;;
15063;SDS011;7631;52.088;5.088;2022-08-18T10:27:55;2.05;;;1.95;;
15063;SDS011;7631;52.088;5.088;2022-08-18T10:32:51;2.40;;;2.20;;
15063;SDS011;7631;52.088;5.088;2022-08-18T10:36:02;1.83;;;1.73;;
15063;SDS011;7631;52.088;5.088;2022-08-18T10:40:36;1.98;;;1.88;;
15063;SDS011;7631;52.088;5.088;2022-08-18T10:43:09;2.25;;;2.05;;
15063;SDS011;7631;52.088;5.088;2022-08-18T10:45:48;2.10;;;2.00;;
15063;SDS011;7631;52.088;5.088;2022-08-18T10:50:52;2.38;;;2.17;;
15063;SDS011;7631;52.088;5.088;2022-08-18T10:56:11;2.22;;;2.13;;
15063;SDS011;7631;52.088;5.088;2022-08-18T10:58:47;2.35;;;2.00;;
15063;SDS011;7631;52.088;5.088;2022-08-18T11:06:26;2.03;;;1.90;;
15063;SDS011;7631;52.088;5.088;2022-08-18T11:08:57;2.10;;;1.90;;
15063;SDS011;7631;52.088;5.088;2022-08-18T11:11:25;1.98;;;1.88;;
15063;SDS011;7631;52.088;5.088;2022-08-18T11:18:50;2.53;;;2.33;;
15063;SDS011;7631;52.088;5.088;2022-08-18T11:26:42;2.30;;;2.10;;
15063;SDS011;7631;52.088;5.088;2022-08-18T11:29:27;2.17;;;1.98;;
15063;SDS011;7631;52.088;5.088;2022-08-18T11:37:02;1.98;;;1.88;;
15063;SDS011;7631;52.088;5.088;2022-08-18T11:39:29;1.80;;;1.70;;
15063;SDS011;7631;52.088;5.088;2022-08-18T11:41:54;1.80;;;1.70;;
15063;SDS011;7631;52.088;5.088;2022-08-18T11:44:21;1.73;;;1.63;;
15063;SDS011;7631;52.088;5.088;2022-08-18T11:46:48;2.22;;;2.13;;
15063;SDS011;7631;52.088;5.088;2022-08-18T11:49:31;1.95;;;1.85;;
15063;SDS011;7631;52.088;5.088;2022-08-18T11:54:22;1.90;;;1.80;;
15063;SDS011;7631;52.088;5.088;2022-08-18T11:57:25;2.17;;;2.05;;
15063;SDS011;7631;52.088;5.088;2022-08-18T11:59:42;1.90;;;1.80;;
15063;SDS011;7631;52.088;5.088;2022-08-18T12:02:08;1.73;;;1.63;;
15063;SDS011;7631;52.088;5.088;2022-08-18T12:04:38;2.10;;;2.00;;
15063;SDS011;7631;52.088;5.088;2022-08-18T12:07:09;2.15;;;1.95;;
15063;SDS011;7631;52.088;5.088;2022-08-18T12:09:42;1.90;;;1.80;;
15063;SDS011;7631;52.088;5.088;2022-08-18T12:17:20;1.60;;;1.50;;
15063;SDS011;7631;52.088;5.088;2022-08-18T12:19:45;2.00;;;1.90;;
15063;SDS011;7631;52.088;5.088;2022-08-18T12:22:13;2.30;;;1.70;;
15063;SDS011;7631;52.088;5.088;2022-08-18T12:24:39;1.98;;;1.83;;
15063;SDS011;7631;52.088;5.088;2022-08-18T12:27:05;2.08;;;1.90;;
15063;SDS011;7631;52.088;5.088;2022-08-18T12:29:30;2.17;;;2.00;;
15063;SDS011;7631;52.088;5.088;2022-08-18T12:31:55;1.80;;;1.70;;
15063;SDS011;7631;52.088;5.088;2022-08-18T12:34:22;1.75;;;1.65;;
15063;SDS011;7631;52.088;5.088;2022-08-18T12:36:49;2.00;;;1.90;;
15063;SDS011;7631;52.088;5.088;2022-08-18T12:39:14;1.98;;;1.80;;
15063;SDS011;7631;52.088;5.088;2022-08-18T12:41:41;2.00;;;1.90;;
15063;SDS011;7631;52.088;5.088;2022-08-18T12:44:06;1.85;;;1.75;;
15063;SDS011;7631;52.088;5.088;2022-08-18T12:46:31;1.83;;;1.73;;
15063;SDS011;7631;52.088;5.088;2022-08-18T12:48:57;1.75;;;1.65;;
15063;SDS011;7631;52.088;5.088;2022-08-18T12:51:22;1.80;;;1.70;;
15063;SDS011;7631;52.088;5.088;2022-08-18T12:53:47;1.67;;;1.58;;
15063;SDS011;7631;52.088;5.088;2022-08-18T12:56:23;1.65;;;1.55;;
15063;SDS011;7631;52.088;5.088;2022-08-18T12:58:49;1.70;;;1.58;;
15063;SDS011;7631;52.088;5.088;2022-08-18T13:01:18;1.65;;;1.55;;
15063;SDS011;7631;52.088;5.088;2022-08-18T13:03:44;1.60;;;1.50;;
15063;SDS011;7631;52.088;5.088;2022-08-18T13:06:10;2.28;;;1.60;;
15063;SDS011;7631;52.088;5.088;2022-08-18T13:08:36;1.77;;;1.67;;
15063;SDS011;7631;52.088;5.088;2022-08-18T13:11:01;1.77;;;1.60;;
15063;SDS011;7631;52.088;5.088;2022-08-18T13:13:27;1.48;;;1.38;;
15063;SDS011;7631;52.088;5.088;2022-08-18T13:15:52;1.60;;;1.50;;
15063;SDS011;7631;52.088;5.088;2022-08-18T13:18:19;1.70;;;1.60;;
15063;SDS011;7631;52.088;5.088;2022-08-18T13:20:44;2.10;;;2.00;;
15063;SDS011;7631;52.088;5.088;2022-08-18T13:23:09;1.80;;;1.70;;
15063;SDS011;7631;52.088;5.088;2022-08-18T13:25:35;1.80;;;1.70;;
15063;SDS011;7631;52.088;5.088;2022-08-18T13:28:00;1.92;;;1.80;;
15063;SDS011;7631;52.088;5.088;2022-08-18T13:30:25;1.58;;;1.48;;
15063;SDS011;7631;52.088;5.088;2022-08-18T13:32:50;1.77;;;1.55;;
15063;SDS011;7631;52.088;5.088;2022-08-18T13:35:16;1.95;;;1.85;;
15063;SDS011;7631;52.088;5.088;2022-08-18T13:37:41;1.70;;;1.60;;
15063;SDS011;7631;52.088;5.088;2022-08-18T13:40:07;2.05;;;1.80;;
15063;SDS011;7631;52.088;5.088;2022-08-18T13:42:40;2.05;;;1.63;;
15063;SDS011;7631;52.088;5.088;2022-08-18T13:45:05;1.70;;;1.60;;
15063;SDS011;7631;52.088;5.088;2022-08-18T13:47:30;2.28;;;1.67;;
15063;SDS011;7631;52.088;5.088;2022-08-18T13:49:56;1.70;;;1.60;;
15063;SDS011;7631;52.088;5.088;2022-08-18T13:52:21;1.50;;;1.33;;
15063;SDS011;7631;52.088;5.088;2022-08-18T13:54:46;2.05;;;1.63;;
15063;SDS011;7631;52.088;5.088;2022-08-18T13:57:11;1.95;;;1.80;;
15063;SDS011;7631;52.088;5.088;2022-08-18T13:59:37;1.80;;;1.70;;
15063;SDS011;7631;52.088;5.088;2022-08-18T14:02:04;1.60;;;1.50;;
15063;SDS011;7631;52.088;5.088;2022-08-18T14:04:29;1.50;;;1.40;;
15063;SDS011;7631;52.088;5.088;2022-08-18T14:06:55;1.70;;;1.60;;
15063;SDS011;7631;52.088;5.088;2022-08-18T14:09:20;11.97;;;2.90;;
15063;SDS011;7631;52.088;5.088;2022-08-18T14:11:45;20.75;;;3.70;;
15063;SDS011;7631;52.088;5.088;2022-08-18T14:14:11;7.93;;;2.42;;
15063;SDS011;7631;52.088;5.088;2022-08-18T14:16:37;7.18;;;2.00;;
15063;SDS011;7631;52.088;5.088;2022-08-18T14:19:03;4.28;;;2.10;;
15063;SDS011;7631;52.088;5.088;2022-08-18T14:21:48;3.47;;;1.92;;
15063;SDS011;7631;52.088;5.088;2022-08-18T14:24:33;4.07;;;2.05;;
15063;SDS011;7631;52.088;5.088;2022-08-18T14:27:17;2.95;;;1.80;;
15063;SDS011;7631;52.088;5.088;2022-08-18T14:29:43;2.00;;;1.80;;
15063;SDS011;7631;52.088;5.088;2022-08-18T14:32:10;2.17;;;1.75;;
15063;SDS011;7631;52.088;5.088;2022-08-18T14:34:36;1.77;;;1.60;;
15063;SDS011;7631;52.088;5.088;2022-08-18T14:37:01;2.78;;;1.85;;
15063;SDS011;7631;52.088;5.088;2022-08-18T14:39:26;2.63;;;2.17;;
15063;SDS011;7631;52.088;5.088;2022-08-18T14:41:51;1.77;;;1.60;;
15063;SDS011;7631;52.088;5.088;2022-08-18T14:44:17;2.97;;;1.65;;
15063;SDS011;7631;52.088;5.088;2022-08-18T14:46:42;2.03;;;1.70;;
15063;SDS011;7631;52.088;5.088;2022-08-18T14:49:10;2.97;;;1.80;;
15063;SDS011;7631;52.088;5.088;2022-08-18T14:51:36;3.78;;;2.00;;
15063;SDS011;7631;52.088;5.088;2022-08-18T14:54:03;2.47;;;1.65;;
15063;SDS011;7631;52.088;5.088;2022-08-18T14:56:28;2.35;;;1.52;;
15063;SDS011;7631;52.088;5.088;2022-08-18T14:58:53;1.63;;;1.52;;
15063;SDS011;7631;52.088;5.088;2022-08-18T15:01:18;1.60;;;1.50;;
15063;SDS011;7631;52.088;5.088;2022-08-18T15:03:44;1.92;;;1.75;;
15063;SDS011;7631;52.088;5.088;2022-08-18T15:06:09;1.63;;;1.52;;
15063;SDS011;7631;52.088;5.088;2022-08-18T15:08:35;1.60;;;1.50;;
15063;SDS011;7631;52.088;5.088;2022-08-18T15:11:00;1.58;;;1.42;;
15063;SDS011;7631;52.088;5.088;2022-08-18T15:13:27;1.65;;;1.55;;
15063;SDS011;7631;52.088;5.088;2022-08-18T15:15:52;2.45;;;1.58;;
15063;SDS011;7631;52.088;5.088;2022-08-18T15:18:18;1.65;;;1.55;;
15063;SDS011;7631;52.088;5.088;2022-08-18T15:20:43;1.95;;;1.50;;
15063;SDS011;7631;52.088;5.088;2022-08-18T15:23:27;2.00;;;1.77;;
15063;SDS011;7631;52.088;5.088;2022-08-18T15:26:11;1.50;;;1.40;;
15063;SDS011;7631;52.088;5.088;2022-08-18T15:28:36;1.90;;;1.50;;
15063;SDS011;7631;52.088;5.088;2022-08-18T15:31:03;1.60;;;1.50;;
15063;SDS011;7631;52.088;5.088;2022-08-18T15:33:28;1.98;;;1.70;;
15063;SDS011;7631;52.088;5.088;2022-08-18T15:35:53;1.67;;;1.57;;
15063;SDS011;7631;52.088;5.088;2022-08-18T15:38:20;1.73;;;1.63;;
15063;SDS011;7631;52.088;5.088;2022-08-18T15:40:47;1.70;;;1.58;;
15063;SDS011;7631;52.088;5.088;2022-08-18T15:43:13;1.50;;;1.40;;
15063;SDS011;7631;52.088;5.088;2022-08-18T15:45:39;1.60;;;1.50;;
15063;SDS011;7631;52.088;5.088;2022-08-18T15:48:05;1.60;;;1.50;;
15063;SDS011;7631;52.088;5.088;2022-08-18T15:50:30;1.60;;;1.50;;
15063;SDS011;7631;52.088;5.088;2022-08-18T15:52:57;1.40;;;1.30;;
15063;SDS011;7631;52.088;5.088;2022-08-18T15:55:23;1.88;;;1.67;;
15063;SDS011;7631;52.088;5.088;2022-08-18T15:57:49;1.67;;;1.58;;
15063;SDS011;7631;52.088;5.088;2022-08-18T16:00:14;1.58;;;1.48;;
15063;SDS011;7631;52.088;5.088;2022-08-18T16:02:41;1.60;;;1.50;;
15063;SDS011;7631;52.088;5.088;2022-08-18T16:05:11;4.03;;;1.70;;
15063;SDS011;7631;52.088;5.088;2022-08-18T16:07:36;2.15;;;1.70;;
15063;SDS011;7631;52.088;5.088;2022-08-18T16:10:02;1.30;;;1.20;;
15063;SDS011;7631;52.088;5.088;2022-08-18T16:12:27;1.40;;;1.30;;
15063;SDS011;7631;52.088;5.088;2022-08-18T16:14:52;1.73;;;1.63;;
15063;SDS011;7631;52.088;5.088;2022-08-18T16:17:17;1.53;;;1.40;;
15063;SDS011;7631;52.088;5.088;2022-08-18T16:19:46;1.10;;;1.10;;
15063;SDS011;7631;52.088;5.088;2022-08-18T16:22:11;1.45;;;1.25;;
15063;SDS011;7631;52.088;5.088;2022-08-18T16:24:37;1.67;;;1.58;;
15063;SDS011;7631;52.088;5.088;2022-08-18T16:27:02;1.60;;;1.50;;
15063;SDS011;7631;52.088;5.088;2022-08-18T16:29:30;1.60;;;1.30;;
15063;SDS011;7631;52.088;5.088;2022-08-18T16:31:55;1.50;;;1.40;;
15063;SDS011;7631;52.088;5.088;2022-08-18T16:34:20;1.60;;;1.50;;
15063;SDS011;7631;52.088;5.088;2022-08-18T16:36:45;1.63;;;1.43;;
15063;SDS011;7631;52.088;5.088;2022-08-18T16:39:11;2.00;;;1.52;;
15063;SDS011;7631;52.088;5.088;2022-08-18T16:41:36;1.40;;;1.30;;
15063;SDS011;7631;52.088;5.088;2022-08-18T16:44:01;1.55;;;1.45;;
15063;SDS011;7631;52.088;5.088;2022-08-18T16:46:27;1.25;;;1.15;;
15063;SDS011;7631;52.088;5.088;2022-08-18T16:48:56;1.77;;;1.42;;
15063;SDS011;7631;52.088;5.088;2022-08-18T16:51:22;1.55;;;1.40;;
15063;SDS011;7631;52.088;5.088;2022-08-18T16:53:48;1.35;;;1.25;;
15063;SDS011;7631;52.088;5.088;2022-08-18T16:56:16;1.40;;;1.30;;
15063;SDS011;7631;52.088;5.088;2022-08-18T16:58:42;1.60;;;1.50;;
15063;SDS011;7631;52.088;5.088;2022-08-18T17:01:26;1.60;;;1.50;;
15063;SDS011;7631;52.088;5.088;2022-08-18T17:04:12;1.40;;;1.30;;
15063;SDS011;7631;52.088;5.088;2022-08-18T17:06:42;1.40;;;1.30;;
15063;SDS011;7631;52.088;5.088;2022-08-18T17:09:07;1.48;;;1.38;;
15063;SDS011;7631;52.088;5.088;2022-08-18T17:11:34;1.40;;;1.30;;
15063;SDS011;7631;52.088;5.088;2022-08-18T17:14:00;1.70;;;1.60;;
15063;SDS011;7631;52.088;5.088;2022-08-18T17:16:26;1.75;;;1.65;;
15063;SDS011;7631;52.088;5.088;2022-08-18T17:18:52;1.27;;;1.17;;
15063;SDS011;7631;52.088;5.088;2022-08-18T17:21:19;1.50;;;1.40;;
15063;SDS011;7631;52.088;5.088;2022-08-18T17:23:44;1.30;;;1.20;;
15063;SDS011;7631;52.088;5.088;2022-08-18T17:29:06;1.13;;;1.13;;
15063;SDS011;7631;52.088;5.088;2022-08-18T17:31:34;1.48;;;1.33;;
15063;SDS011;7631;52.088;5.088;2022-08-18T17:34:02;1.48;;;1.30;;